Terminal Aerodrome Forecast
Issued by NWS

Home | Current Version | Previous Version | Text Only | Print | Product List | Glossary On
Versions: 1 2 3 4 5 6 7 8 9 10 11 12 13 14 15
000
FTUS45 KBOI 051742
TAFBKE
TAF
KBKE 051742Z 0518/0618 30009KT P6SM BKN100 OVC200
     FM052100 31015G25KT P6SM VCTS BKN080CB OVC150
     FM060200 31010G20KT P6SM VCSH BKN080 OVC150
     FM060600 31011KT P6SM BKN120 OVC200=

USA.gov is the U.S. government's official web portal to all federal, state and local government web resources and services.